sensor_id;sensor_type;location;lat;lon;timestamp;P1;durP1;ratioP1;P2;durP2;ratioP2
75520;SDS011;64102;48.628;9.002;2023-09-07T00:01:44;8.53;;;1.00;;
75520;SDS011;64102;48.628;9.002;2023-09-07T00:04:09;6.33;;;0.67;;
75520;SDS011;64102;48.628;9.002;2023-09-07T00:06:35;7.00;;;0.80;;
75520;SDS011;64102;48.628;9.002;2023-09-07T00:09:01;8.65;;;0.93;;
75520;SDS011;64102;48.628;9.002;2023-09-07T00:11:27;8.05;;;0.90;;
75520;SDS011;64102;48.628;9.002;2023-09-07T00:13:53;6.55;;;0.80;;
75520;SDS011;64102;48.628;9.002;2023-09-07T00:16:18;7.68;;;0.95;;
75520;SDS011;64102;48.628;9.002;2023-09-07T00:18:43;5.73;;;0.80;;
75520;SDS011;64102;48.628;9.002;2023-09-07T00:21:09;6.40;;;0.65;;
75520;SDS011;64102;48.628;9.002;2023-09-07T00:23:34;5.90;;;0.60;;
75520;SDS011;64102;48.628;9.002;2023-09-07T00:25:59;7.45;;;0.73;;
75520;SDS011;64102;48.628;9.002;2023-09-07T00:28:25;6.80;;;0.80;;
75520;SDS011;64102;48.628;9.002;2023-09-07T00:30:50;6.60;;;0.50;;
75520;SDS011;64102;48.628;9.002;2023-09-07T00:33:15;7.07;;;0.80;;
75520;SDS011;64102;48.628;9.002;2023-09-07T00:35:41;6.20;;;0.90;;
75520;SDS011;64102;48.628;9.002;2023-09-07T00:38:07;5.73;;;0.63;;
75520;SDS011;64102;48.628;9.002;2023-09-07T00:40:32;6.38;;;0.60;;
75520;SDS011;64102;48.628;9.002;2023-09-07T00:42:58;5.07;;;0.50;;
75520;SDS011;64102;48.628;9.002;2023-09-07T00:45:24;6.88;;;0.80;;
75520;SDS011;64102;48.628;9.002;2023-09-07T00:47:50;6.60;;;0.70;;
75520;SDS011;64102;48.628;9.002;2023-09-07T00:50:15;7.50;;;0.60;;
75520;SDS011;64102;48.628;9.002;2023-09-07T00:52:44;5.57;;;0.60;;
75520;SDS011;64102;48.628;9.002;2023-09-07T00:57:37;6.80;;;0.70;;
75520;SDS011;64102;48.628;9.002;2023-09-07T01:00:04;6.68;;;0.63;;
75520;SDS011;64102;48.628;9.002;2023-09-07T01:02:34;6.95;;;0.52;;
75520;SDS011;64102;48.628;9.002;2023-09-07T01:05:00;6.40;;;0.80;;
75520;SDS011;64102;48.628;9.002;2023-09-07T01:07:32;6.80;;;0.88;;
75520;SDS011;64102;48.628;9.002;2023-09-07T01:10:02;6.35;;;0.70;;
75520;SDS011;64102;48.628;9.002;2023-09-07T01:12:27;7.35;;;0.70;;
75520;SDS011;64102;48.628;9.002;2023-09-07T01:14:53;6.65;;;0.60;;
75520;SDS011;64102;48.628;9.002;2023-09-07T01:17:19;6.60;;;0.60;;
75520;SDS011;64102;48.628;9.002;2023-09-07T01:19:46;5.38;;;0.50;;
75520;SDS011;64102;48.628;9.002;2023-09-07T01:22:15;6.68;;;0.70;;
75520;SDS011;64102;48.628;9.002;2023-09-07T01:24:42;7.70;;;0.82;;
75520;SDS011;64102;48.628;9.002;2023-09-07T01:27:10;6.38;;;0.70;;
75520;SDS011;64102;48.628;9.002;2023-09-07T01:29:38;7.05;;;0.70;;
75520;SDS011;64102;48.628;9.002;2023-09-07T01:32:03;5.65;;;0.70;;
75520;SDS011;64102;48.628;9.002;2023-09-07T01:34:29;4.90;;;0.63;;
75520;SDS011;64102;48.628;9.002;2023-09-07T01:36:54;6.70;;;0.80;;
75520;SDS011;64102;48.628;9.002;2023-09-07T01:39:20;6.13;;;0.73;;
75520;SDS011;64102;48.628;9.002;2023-09-07T01:41:45;6.67;;;0.87;;
75520;SDS011;64102;48.628;9.002;2023-09-07T01:44:10;6.90;;;0.90;;
75520;SDS011;64102;48.628;9.002;2023-09-07T01:46:36;6.33;;;0.80;;
75520;SDS011;64102;48.628;9.002;2023-09-07T01:49:01;9.15;;;0.88;;
75520;SDS011;64102;48.628;9.002;2023-09-07T01:51:27;7.47;;;0.70;;
75520;SDS011;64102;48.628;9.002;2023-09-07T01:53:53;8.63;;;0.80;;
75520;SDS011;64102;48.628;9.002;2023-09-07T01:56:19;5.82;;;0.65;;
75520;SDS011;64102;48.628;9.002;2023-09-07T01:58:44;6.53;;;0.63;;
75520;SDS011;64102;48.628;9.002;2023-09-07T02:01:26;7.50;;;0.65;;
75520;SDS011;64102;48.628;9.002;2023-09-07T02:03:56;7.22;;;0.73;;
75520;SDS011;64102;48.628;9.002;2023-09-07T02:06:22;7.65;;;1.02;;
75520;SDS011;64102;48.628;9.002;2023-09-07T02:08:47;6.07;;;0.70;;
75520;SDS011;64102;48.628;9.002;2023-09-07T02:11:13;6.72;;;0.90;;
75520;SDS011;64102;48.628;9.002;2023-09-07T02:13:42;6.55;;;0.82;;
75520;SDS011;64102;48.628;9.002;2023-09-07T02:16:08;6.57;;;0.77;;
75520;SDS011;64102;48.628;9.002;2023-09-07T02:18:33;7.07;;;1.00;;
75520;SDS011;64102;48.628;9.002;2023-09-07T02:21:05;7.00;;;0.73;;
75520;SDS011;64102;48.628;9.002;2023-09-07T02:23:31;7.30;;;0.88;;
75520;SDS011;64102;48.628;9.002;2023-09-07T02:25:57;7.32;;;1.02;;
75520;SDS011;64102;48.628;9.002;2023-09-07T02:28:23;7.47;;;0.90;;
75520;SDS011;64102;48.628;9.002;2023-09-07T02:30:49;6.38;;;0.90;;
75520;SDS011;64102;48.628;9.002;2023-09-07T02:33:14;7.23;;;1.10;;
75520;SDS011;64102;48.628;9.002;2023-09-07T02:35:39;6.28;;;0.75;;
75520;SDS011;64102;48.628;9.002;2023-09-07T02:38:05;6.73;;;0.60;;
75520;SDS011;64102;48.628;9.002;2023-09-07T02:40:30;6.32;;;0.70;;
75520;SDS011;64102;48.628;9.002;2023-09-07T02:42:55;6.43;;;0.87;;
75520;SDS011;64102;48.628;9.002;2023-09-07T02:45:21;6.70;;;0.87;;
75520;SDS011;64102;48.628;9.002;2023-09-07T02:47:46;6.80;;;0.90;;
75520;SDS011;64102;48.628;9.002;2023-09-07T02:50:14;6.60;;;0.98;;
75520;SDS011;64102;48.628;9.002;2023-09-07T02:52:40;8.77;;;0.85;;
75520;SDS011;64102;48.628;9.002;2023-09-07T02:55:06;6.83;;;0.87;;
75520;SDS011;64102;48.628;9.002;2023-09-07T02:57:32;8.23;;;1.02;;
75520;SDS011;64102;48.628;9.002;2023-09-07T02:59:57;7.20;;;0.82;;
75520;SDS011;64102;48.628;9.002;2023-09-07T03:02:23;6.43;;;0.50;;
75520;SDS011;64102;48.628;9.002;2023-09-07T03:04:52;6.00;;;0.70;;
75520;SDS011;64102;48.628;9.002;2023-09-07T03:07:18;6.45;;;0.70;;
75520;SDS011;64102;48.628;9.002;2023-09-07T03:09:44;7.63;;;0.90;;
75520;SDS011;64102;48.628;9.002;2023-09-07T03:12:09;7.85;;;0.82;;
75520;SDS011;64102;48.628;9.002;2023-09-07T03:14:35;6.27;;;0.80;;
75520;SDS011;64102;48.628;9.002;2023-09-07T03:17:00;6.43;;;0.90;;
75520;SDS011;64102;48.628;9.002;2023-09-07T03:19:25;6.87;;;0.80;;
75520;SDS011;64102;48.628;9.002;2023-09-07T03:21:51;7.23;;;0.77;;
75520;SDS011;64102;48.628;9.002;2023-09-07T03:24:17;6.60;;;0.65;;
75520;SDS011;64102;48.628;9.002;2023-09-07T03:26:42;6.63;;;0.52;;
75520;SDS011;64102;48.628;9.002;2023-09-07T03:29:08;6.93;;;1.08;;
75520;SDS011;64102;48.628;9.002;2023-09-07T03:31:34;7.88;;;0.95;;
75520;SDS011;64102;48.628;9.002;2023-09-07T03:34:00;6.75;;;0.80;;
75520;SDS011;64102;48.628;9.002;2023-09-07T03:36:26;7.50;;;0.97;;
75520;SDS011;64102;48.628;9.002;2023-09-07T03:38:51;7.63;;;1.13;;
75520;SDS011;64102;48.628;9.002;2023-09-07T03:41:16;7.10;;;1.17;;
75520;SDS011;64102;48.628;9.002;2023-09-07T03:43:42;7.47;;;1.10;;
75520;SDS011;64102;48.628;9.002;2023-09-07T03:46:07;7.27;;;1.20;;
75520;SDS011;64102;48.628;9.002;2023-09-07T03:48:32;7.50;;;0.80;;
75520;SDS011;64102;48.628;9.002;2023-09-07T03:50:57;7.33;;;0.87;;
75520;SDS011;64102;48.628;9.002;2023-09-07T03:53:23;7.63;;;1.30;;
75520;SDS011;64102;48.628;9.002;2023-09-07T03:55:48;6.93;;;1.03;;
75520;SDS011;64102;48.628;9.002;2023-09-07T03:58:13;7.33;;;1.10;;
75520;SDS011;64102;48.628;9.002;2023-09-07T04:00:39;8.00;;;1.20;;
75520;SDS011;64102;48.628;9.002;2023-09-07T04:03:06;8.40;;;0.85;;
75520;SDS011;64102;48.628;9.002;2023-09-07T04:05:32;6.10;;;0.75;;
75520;SDS011;64102;48.628;9.002;2023-09-07T04:07:57;7.27;;;1.00;;
75520;SDS011;64102;48.628;9.002;2023-09-07T04:10:22;7.67;;;1.23;;
75520;SDS011;64102;48.628;9.002;2023-09-07T04:12:48;8.10;;;0.90;;
75520;SDS011;64102;48.628;9.002;2023-09-07T04:15:13;5.53;;;0.70;;
75520;SDS011;64102;48.628;9.002;2023-09-07T04:17:38;6.93;;;1.00;;
75520;SDS011;64102;48.628;9.002;2023-09-07T04:20:06;6.90;;;0.73;;
75520;SDS011;64102;48.628;9.002;2023-09-07T04:22:33;6.90;;;0.93;;
75520;SDS011;64102;48.628;9.002;2023-09-07T04:24:58;8.52;;;1.08;;
75520;SDS011;64102;48.628;9.002;2023-09-07T04:27:23;11.00;;;1.17;;
75520;SDS011;64102;48.628;9.002;2023-09-07T04:29:49;7.80;;;1.20;;
75520;SDS011;64102;48.628;9.002;2023-09-07T04:32:15;8.30;;;1.65;;
75520;SDS011;64102;48.628;9.002;2023-09-07T04:34:40;7.53;;;1.33;;
75520;SDS011;64102;48.628;9.002;2023-09-07T04:37:05;8.70;;;1.07;;
75520;SDS011;64102;48.628;9.002;2023-09-07T04:39:31;7.40;;;0.93;;
75520;SDS011;64102;48.628;9.002;2023-09-07T04:41:56;7.53;;;1.10;;
75520;SDS011;64102;48.628;9.002;2023-09-07T04:44:21;8.57;;;1.60;;
75520;SDS011;64102;48.628;9.002;2023-09-07T04:46:47;7.17;;;0.83;;
75520;SDS011;64102;48.628;9.002;2023-09-07T04:49:12;7.88;;;1.23;;
75520;SDS011;64102;48.628;9.002;2023-09-07T04:51:37;7.73;;;0.80;;
75520;SDS011;64102;48.628;9.002;2023-09-07T04:54:03;7.70;;;0.97;;
75520;SDS011;64102;48.628;9.002;2023-09-07T04:56:28;8.25;;;1.38;;
75520;SDS011;64102;48.628;9.002;2023-09-07T04:58:54;9.88;;;1.20;;
75520;SDS011;64102;48.628;9.002;2023-09-07T05:01:19;7.97;;;1.10;;
75520;SDS011;64102;48.628;9.002;2023-09-07T05:03:44;7.93;;;1.20;;
75520;SDS011;64102;48.628;9.002;2023-09-07T05:06:10;7.87;;;1.10;;
75520;SDS011;64102;48.628;9.002;2023-09-07T05:08:36;8.35;;;1.40;;
75520;SDS011;64102;48.628;9.002;2023-09-07T05:11:03;8.82;;;1.20;;
75520;SDS011;64102;48.628;9.002;2023-09-07T05:13:30;7.10;;;0.75;;
75520;SDS011;64102;48.628;9.002;2023-09-07T05:15:56;7.03;;;0.90;;
75520;SDS011;64102;48.628;9.002;2023-09-07T05:18:23;5.93;;;0.82;;
75520;SDS011;64102;48.628;9.002;2023-09-07T05:21:13;9.20;;;1.17;;
75520;SDS011;64102;48.628;9.002;2023-09-07T05:23:39;7.22;;;0.82;;
75520;SDS011;64102;48.628;9.002;2023-09-07T05:26:04;7.95;;;1.13;;
75520;SDS011;64102;48.628;9.002;2023-09-07T05:28:30;6.90;;;0.80;;
75520;SDS011;64102;48.628;9.002;2023-09-07T05:30:55;6.07;;;0.80;;
75520;SDS011;64102;48.628;9.002;2023-09-07T05:33:20;7.23;;;0.80;;
75520;SDS011;64102;48.628;9.002;2023-09-07T05:35:46;7.45;;;0.90;;
75520;SDS011;64102;48.628;9.002;2023-09-07T05:38:12;7.13;;;0.90;;
75520;SDS011;64102;48.628;9.002;2023-09-07T05:40:38;7.05;;;1.10;;
75520;SDS011;64102;48.628;9.002;2023-09-07T05:43:05;7.30;;;0.95;;
75520;SDS011;64102;48.628;9.002;2023-09-07T05:45:33;6.80;;;1.17;;
75520;SDS011;64102;48.628;9.002;2023-09-07T05:48:01;7.53;;;1.20;;
75520;SDS011;64102;48.628;9.002;2023-09-07T05:50:27;7.28;;;1.10;;
75520;SDS011;64102;48.628;9.002;2023-09-07T05:52:52;6.30;;;0.90;;
75520;SDS011;64102;48.628;9.002;2023-09-07T05:55:18;7.13;;;1.10;;
75520;SDS011;64102;48.628;9.002;2023-09-07T05:57:43;8.82;;;0.70;;
75520;SDS011;64102;48.628;9.002;2023-09-07T06:00:09;6.80;;;0.63;;
75520;SDS011;64102;48.628;9.002;2023-09-07T06:02:34;6.35;;;1.00;;
75520;SDS011;64102;48.628;9.002;2023-09-07T06:05:00;7.75;;;1.13;;
75520;SDS011;64102;48.628;9.002;2023-09-07T06:07:26;6.32;;;0.80;;
75520;SDS011;64102;48.628;9.002;2023-09-07T06:09:51;7.67;;;0.90;;
75520;SDS011;64102;48.628;9.002;2023-09-07T06:12:17;7.90;;;0.90;;
75520;SDS011;64102;48.628;9.002;2023-09-07T06:14:42;8.50;;;1.05;;
75520;SDS011;64102;48.628;9.002;2023-09-07T06:17:09;7.60;;;1.05;;
75520;SDS011;64102;48.628;9.002;2023-09-07T06:19:34;6.63;;;0.88;;
75520;SDS011;64102;48.628;9.002;2023-09-07T06:22:00;6.30;;;0.90;;
75520;SDS011;64102;48.628;9.002;2023-09-07T06:24:25;7.43;;;1.30;;
75520;SDS011;64102;48.628;9.002;2023-09-07T06:26:50;7.87;;;1.20;;
75520;SDS011;64102;48.628;9.002;2023-09-07T06:29:16;7.55;;;1.63;;
75520;SDS011;64102;48.628;9.002;2023-09-07T06:31:41;8.17;;;1.20;;
75520;SDS011;64102;48.628;9.002;2023-09-07T06:34:07;7.07;;;1.17;;
75520;SDS011;64102;48.628;9.002;2023-09-07T06:36:32;8.90;;;1.30;;
75520;SDS011;64102;48.628;9.002;2023-09-07T06:38:57;6.87;;;1.40;;
75520;SDS011;64102;48.628;9.002;2023-09-07T06:41:23;7.90;;;1.77;;
75520;SDS011;64102;48.628;9.002;2023-09-07T06:43:49;8.32;;;1.77;;
75520;SDS011;64102;48.628;9.002;2023-09-07T06:46:14;8.30;;;1.60;;
75520;SDS011;64102;48.628;9.002;2023-09-07T06:48:40;7.97;;;1.63;;
75520;SDS011;64102;48.628;9.002;2023-09-07T06:51:05;7.70;;;1.73;;
75520;SDS011;64102;48.628;9.002;2023-09-07T06:53:32;8.93;;;1.98;;
75520;SDS011;64102;48.628;9.002;2023-09-07T06:55:58;8.20;;;2.20;;
75520;SDS011;64102;48.628;9.002;2023-09-07T06:58:24;8.40;;;2.00;;
75520;SDS011;64102;48.628;9.002;2023-09-07T07:00:49;7.68;;;1.83;;
75520;SDS011;64102;48.628;9.002;2023-09-07T07:03:15;7.10;;;1.80;;
75520;SDS011;64102;48.628;9.002;2023-09-07T07:05:40;8.47;;;1.90;;
75520;SDS011;64102;48.628;9.002;2023-09-07T07:08:05;8.43;;;2.30;;
75520;SDS011;64102;48.628;9.002;2023-09-07T07:10:30;7.43;;;1.67;;
75520;SDS011;64102;48.628;9.002;2023-09-07T07:12:56;8.30;;;2.00;;
75520;SDS011;64102;48.628;9.002;2023-09-07T07:15:21;7.80;;;2.10;;
75520;SDS011;64102;48.628;9.002;2023-09-07T07:17:46;7.70;;;2.33;;
75520;SDS011;64102;48.628;9.002;2023-09-07T07:20:12;8.10;;;1.90;;
75520;SDS011;64102;48.628;9.002;2023-09-07T07:22:37;8.23;;;2.00;;
75520;SDS011;64102;48.628;9.002;2023-09-07T07:25:02;8.07;;;2.50;;
75520;SDS011;64102;48.628;9.002;2023-09-07T07:27:30;9.88;;;2.10;;
75520;SDS011;64102;48.628;9.002;2023-09-07T07:29:56;8.18;;;2.55;;
75520;SDS011;64102;48.628;9.002;2023-09-07T07:32:21;8.27;;;2.50;;
75520;SDS011;64102;48.628;9.002;2023-09-07T07:34:47;8.83;;;2.13;;
75520;SDS011;64102;48.628;9.002;2023-09-07T07:37:12;7.40;;;1.85;;
75520;SDS011;64102;48.628;9.002;2023-09-07T07:39:37;6.72;;;1.95;;
75520;SDS011;64102;48.628;9.002;2023-09-07T07:42:03;7.53;;;2.20;;
75520;SDS011;64102;48.628;9.002;2023-09-07T07:44:29;8.27;;;2.85;;
75520;SDS011;64102;48.628;9.002;2023-09-07T07:46:55;7.82;;;2.30;;
75520;SDS011;64102;48.628;9.002;2023-09-07T07:49:20;8.30;;;1.93;;
75520;SDS011;64102;48.628;9.002;2023-09-07T07:51:45;8.60;;;2.67;;
75520;SDS011;64102;48.628;9.002;2023-09-07T07:54:11;9.07;;;2.50;;
75520;SDS011;64102;48.628;9.002;2023-09-07T07:56:38;7.60;;;1.97;;
75520;SDS011;64102;48.628;9.002;2023-09-07T07:59:04;8.55;;;3.05;;
75520;SDS011;64102;48.628;9.002;2023-09-07T08:01:30;7.53;;;2.92;;
75520;SDS011;64102;48.628;9.002;2023-09-07T08:03:55;9.55;;;3.05;;
75520;SDS011;64102;48.628;9.002;2023-09-07T08:06:21;13.52;;;3.70;;
75520;SDS011;64102;48.628;9.002;2023-09-07T08:08:46;7.88;;;2.78;;
75520;SDS011;64102;48.628;9.002;2023-09-07T08:11:11;8.03;;;2.93;;
75520;SDS011;64102;48.628;9.002;2023-09-07T08:13:37;7.47;;;2.47;;
75520;SDS011;64102;48.628;9.002;2023-09-07T08:16:03;7.47;;;2.90;;
75520;SDS011;64102;48.628;9.002;2023-09-07T08:18:29;9.05;;;3.30;;
75520;SDS011;64102;48.628;9.002;2023-09-07T08:20:59;7.72;;;3.25;;
75520;SDS011;64102;48.628;9.002;2023-09-07T08:23:24;8.27;;;3.53;;
75520;SDS011;64102;48.628;9.002;2023-09-07T08:25:52;7.77;;;2.87;;
75520;SDS011;64102;48.628;9.002;2023-09-07T08:28:19;7.57;;;3.10;;
75520;SDS011;64102;48.628;9.002;2023-09-07T08:30:48;7.40;;;2.72;;
75520;SDS011;64102;48.628;9.002;2023-09-07T08:33:14;10.27;;;3.00;;
75520;SDS011;64102;48.628;9.002;2023-09-07T08:35:39;7.43;;;2.90;;
75520;SDS011;64102;48.628;9.002;2023-09-07T08:38:09;8.40;;;2.60;;
75520;SDS011;64102;48.628;9.002;2023-09-07T08:40:35;8.25;;;3.03;;
75520;SDS011;64102;48.628;9.002;2023-09-07T08:43:02;7.65;;;3.15;;
75520;SDS011;64102;48.628;9.002;2023-09-07T08:45:29;7.40;;;2.92;;
75520;SDS011;64102;48.628;9.002;2023-09-07T08:47:57;8.30;;;3.03;;
75520;SDS011;64102;48.628;9.002;2023-09-07T08:50:23;8.23;;;3.28;;
75520;SDS011;64102;48.628;9.002;2023-09-07T08:52:50;11.18;;;3.90;;
75520;SDS011;64102;48.628;9.002;2023-09-07T08:55:17;8.75;;;4.22;;
75520;SDS011;64102;48.628;9.002;2023-09-07T08:57:43;9.00;;;3.38;;
75520;SDS011;64102;48.628;9.002;2023-09-07T09:00:08;8.02;;;3.83;;
75520;SDS011;64102;48.628;9.002;2023-09-07T09:02:40;9.88;;;4.60;;
75520;SDS011;64102;48.628;9.002;2023-09-07T09:05:05;9.07;;;4.47;;
75520;SDS011;64102;48.628;9.002;2023-09-07T09:07:34;9.65;;;3.92;;
75520;SDS011;64102;48.628;9.002;2023-09-07T09:10:17;9.10;;;5.10;;
75520;SDS011;64102;48.628;9.002;2023-09-07T09:12:46;9.38;;;5.00;;
75520;SDS011;64102;48.628;9.002;2023-09-07T09:15:12;8.30;;;4.40;;
75520;SDS011;64102;48.628;9.002;2023-09-07T09:17:37;7.80;;;4.15;;
75520;SDS011;64102;48.628;9.002;2023-09-07T09:20:03;10.37;;;6.50;;
75520;SDS011;64102;48.628;9.002;2023-09-07T09:22:34;9.55;;;4.55;;
75520;SDS011;64102;48.628;9.002;2023-09-07T09:25:02;8.73;;;5.15;;
75520;SDS011;64102;48.628;9.002;2023-09-07T09:27:29;8.15;;;4.68;;
75520;SDS011;64102;48.628;9.002;2023-09-07T09:29:56;7.50;;;3.85;;
75520;SDS011;64102;48.628;9.002;2023-09-07T09:32:21;8.48;;;4.13;;
75520;SDS011;64102;48.628;9.002;2023-09-07T09:34:47;9.98;;;5.00;;
75520;SDS011;64102;48.628;9.002;2023-09-07T09:37:13;8.77;;;5.00;;
75520;SDS011;64102;48.628;9.002;2023-09-07T09:39:44;9.90;;;4.20;;
75520;SDS011;64102;48.628;9.002;2023-09-07T09:42:14;8.55;;;4.68;;
75520;SDS011;64102;48.628;9.002;2023-09-07T09:44:40;8.35;;;4.75;;
75520;SDS011;64102;48.628;9.002;2023-09-07T09:47:07;8.27;;;5.55;;
75520;SDS011;64102;48.628;9.002;2023-09-07T09:49:33;9.60;;;5.78;;
75520;SDS011;64102;48.628;9.002;2023-09-07T09:52:00;12.25;;;5.20;;
75520;SDS011;64102;48.628;9.002;2023-09-07T09:54:26;8.48;;;5.00;;
75520;SDS011;64102;48.628;9.002;2023-09-07T09:56:52;8.98;;;6.10;;
75520;SDS011;64102;48.628;9.002;2023-09-07T09:59:19;8.68;;;6.82;;
75520;SDS011;64102;48.628;9.002;2023-09-07T10:01:45;8.85;;;5.03;;
75520;SDS011;64102;48.628;9.002;2023-09-07T10:04:12;8.52;;;6.00;;
75520;SDS011;64102;48.628;9.002;2023-09-07T10:06:49;8.85;;;4.95;;
75520;SDS011;64102;48.628;9.002;2023-09-07T10:09:18;9.55;;;6.43;;
75520;SDS011;64102;48.628;9.002;2023-09-07T10:11:50;9.65;;;8.63;;
75520;SDS011;64102;48.628;9.002;2023-09-07T10:14:18;11.20;;;6.05;;
75520;SDS011;64102;48.628;9.002;2023-09-07T10:16:43;8.00;;;5.37;;
75520;SDS011;64102;48.628;9.002;2023-09-07T10:21:44;10.23;;;8.38;;
75520;SDS011;64102;48.628;9.002;2023-09-07T10:24:10;8.98;;;6.50;;
75520;SDS011;64102;48.628;9.002;2023-09-07T10:26:36;9.45;;;7.78;;
75520;SDS011;64102;48.628;9.002;2023-09-07T10:29:02;11.52;;;5.72;;
75520;SDS011;64102;48.628;9.002;2023-09-07T10:31:29;8.63;;;7.35;;
75520;SDS011;64102;48.628;9.002;2023-09-07T10:34:07;8.38;;;5.47;;
75520;SDS011;64102;48.628;9.002;2023-09-07T10:36:33;8.85;;;7.03;;
75520;SDS011;64102;48.628;9.002;2023-09-07T10:38:59;9.85;;;7.68;;
75520;SDS011;64102;48.628;9.002;2023-09-07T10:41:25;9.85;;;7.85;;
75520;SDS011;64102;48.628;9.002;2023-09-07T10:43:51;8.03;;;6.40;;
75520;SDS011;64102;48.628;9.002;2023-09-07T10:46:19;8.30;;;6.47;;
75520;SDS011;64102;48.628;9.002;2023-09-07T10:48:51;9.05;;;7.00;;
75520;SDS011;64102;48.628;9.002;2023-09-07T10:51:18;8.57;;;5.25;;
75520;SDS011;64102;48.628;9.002;2023-09-07T10:53:44;9.27;;;7.63;;
75520;SDS011;64102;48.628;9.002;2023-09-07T10:56:09;9.60;;;7.40;;
75520;SDS011;64102;48.628;9.002;2023-09-07T10:58:35;10.40;;;6.03;;
75520;SDS011;64102;48.628;9.002;2023-09-07T11:01:06;10.00;;;9.00;;
75520;SDS011;64102;48.628;9.002;2023-09-07T11:03:32;10.32;;;8.18;;
75520;SDS011;64102;48.628;9.002;2023-09-07T11:06:11;10.90;;;9.07;;
75520;SDS011;64102;48.628;9.002;2023-09-07T11:08:41;10.90;;;9.52;;
75520;SDS011;64102;48.628;9.002;2023-09-07T11:11:08;12.40;;;11.30;;
75520;SDS011;64102;48.628;9.002;2023-09-07T11:13:34;10.57;;;7.85;;
75520;SDS011;64102;48.628;9.002;2023-09-07T11:16:00;9.93;;;7.75;;
75520;SDS011;64102;48.628;9.002;2023-09-07T11:18:25;10.38;;;9.38;;
75520;SDS011;64102;48.628;9.002;2023-09-07T11:20:51;9.60;;;8.60;;
75520;SDS011;64102;48.628;9.002;2023-09-07T11:23:18;9.73;;;8.32;;
75520;SDS011;64102;48.628;9.002;2023-09-07T11:25:44;11.82;;;10.65;;
75520;SDS011;64102;48.628;9.002;2023-09-07T11:28:11;10.57;;;6.68;;
75520;SDS011;64102;48.628;9.002;2023-09-07T11:30:37;11.30;;;10.27;;
75520;SDS011;64102;48.628;9.002;2023-09-07T11:33:13;11.35;;;10.25;;
75520;SDS011;64102;48.628;9.002;2023-09-07T11:35:40;9.68;;;8.45;;
75520;SDS011;64102;48.628;9.002;2023-09-07T11:38:06;9.20;;;7.78;;
75520;SDS011;64102;48.628;9.002;2023-09-07T11:40:35;8.38;;;6.10;;
75520;SDS011;64102;48.628;9.002;2023-09-07T11:43:00;11.60;;;10.50;;
75520;SDS011;64102;48.628;9.002;2023-09-07T11:45:26;10.13;;;9.03;;
75520;SDS011;64102;48.628;9.002;2023-09-07T11:47:51;12.48;;;10.57;;
75520;SDS011;64102;48.628;9.002;2023-09-07T11:50:17;11.23;;;9.70;;
75520;SDS011;64102;48.628;9.002;2023-09-07T11:52:43;9.38;;;8.40;;
75520;SDS011;64102;48.628;9.002;2023-09-07T11:55:08;8.95;;;6.90;;
75520;SDS011;64102;48.628;9.002;2023-09-07T11:57:35;11.48;;;10.38;;
75520;SDS011;64102;48.628;9.002;2023-09-07T12:00:01;11.48;;;10.38;;
75520;SDS011;64102;48.628;9.002;2023-09-07T12:02:27;9.93;;;8.75;;
75520;SDS011;64102;48.628;9.002;2023-09-07T12:04:52;10.27;;;8.43;;
75520;SDS011;64102;48.628;9.002;2023-09-07T12:07:19;9.88;;;8.48;;
75520;SDS011;64102;48.628;9.002;2023-09-07T12:09:44;10.20;;;7.30;;
75520;SDS011;64102;48.628;9.002;2023-09-07T12:12:09;13.97;;;12.70;;
75520;SDS011;64102;48.628;9.002;2023-09-07T12:14:35;10.02;;;8.15;;
75520;SDS011;64102;48.628;9.002;2023-09-07T12:17:01;11.05;;;8.18;;
75520;SDS011;64102;48.628;9.002;2023-09-07T12:19:26;9.90;;;8.90;;
75520;SDS011;64102;48.628;9.002;2023-09-07T12:21:51;10.57;;;9.30;;
75520;SDS011;64102;48.628;9.002;2023-09-07T12:24:17;9.50;;;8.50;;
75520;SDS011;64102;48.628;9.002;2023-09-07T12:26:42;10.10;;;8.85;;
75520;SDS011;64102;48.628;9.002;2023-09-07T12:29:08;10.80;;;7.97;;
75520;SDS011;64102;48.628;9.002;2023-09-07T12:31:33;12.77;;;11.45;;
75520;SDS011;64102;48.628;9.002;2023-09-07T12:33:59;12.98;;;11.70;;
75520;SDS011;64102;48.628;9.002;2023-09-07T12:36:24;10.60;;;9.40;;
75520;SDS011;64102;48.628;9.002;2023-09-07T12:38:49;10.75;;;9.52;;
75520;SDS011;64102;48.628;9.002;2023-09-07T12:41:15;12.30;;;9.40;;
75520;SDS011;64102;48.628;9.002;2023-09-07T12:43:40;12.00;;;10.73;;
75520;SDS011;64102;48.628;9.002;2023-09-07T12:46:08;9.85;;;7.95;;
75520;SDS011;64102;48.628;9.002;2023-09-07T12:48:33;9.25;;;8.32;;
75520;SDS011;64102;48.628;9.002;2023-09-07T12:50:59;11.43;;;10.23;;
75520;SDS011;64102;48.628;9.002;2023-09-07T12:53:24;10.07;;;8.93;;
75520;SDS011;64102;48.628;9.002;2023-09-07T12:55:53;9.25;;;7.78;;
75520;SDS011;64102;48.628;9.002;2023-09-07T12:58:19;10.45;;;8.63;;
75520;SDS011;64102;48.628;9.002;2023-09-07T13:00:45;10.90;;;9.50;;
75520;SDS011;64102;48.628;9.002;2023-09-07T13:03:12;10.93;;;9.82;;
75520;SDS011;64102;48.628;9.002;2023-09-07T13:05:38;12.27;;;10.65;;
75520;SDS011;64102;48.628;9.002;2023-09-07T13:08:03;12.63;;;11.43;;
75520;SDS011;64102;48.628;9.002;2023-09-07T13:10:29;9.00;;;5.68;;
75520;SDS011;64102;48.628;9.002;2023-09-07T13:12:54;10.43;;;9.40;;
75520;SDS011;64102;48.628;9.002;2023-09-07T13:15:20;11.65;;;9.73;;
75520;SDS011;64102;48.628;9.002;2023-09-07T13:17:45;11.30;;;10.30;;
75520;SDS011;64102;48.628;9.002;2023-09-07T13:20:11;9.65;;;8.52;;
75520;SDS011;64102;48.628;9.002;2023-09-07T13:22:37;10.70;;;9.60;;
75520;SDS011;64102;48.628;9.002;2023-09-07T13:25:02;10.13;;;9.02;;
75520;SDS011;64102;48.628;9.002;2023-09-07T13:27:30;10.35;;;9.30;;
75520;SDS011;64102;48.628;9.002;2023-09-07T13:29:55;10.27;;;9.27;;
75520;SDS011;64102;48.628;9.002;2023-09-07T13:32:21;9.80;;;8.57;;
75520;SDS011;64102;48.628;9.002;2023-09-07T13:34:46;9.83;;;8.83;;
75520;SDS011;64102;48.628;9.002;2023-09-07T13:37:12;9.63;;;8.63;;
75520;SDS011;64102;48.628;9.002;2023-09-07T13:39:37;11.73;;;10.63;;
75520;SDS011;64102;48.628;9.002;2023-09-07T13:42:02;10.07;;;8.07;;
75520;SDS011;64102;48.628;9.002;2023-09-07T13:44:28;13.60;;;12.50;;
75520;SDS011;64102;48.628;9.002;2023-09-07T13:46:53;9.23;;;7.07;;
75520;SDS011;64102;48.628;9.002;2023-09-07T13:49:20;8.85;;;7.30;;
75520;SDS011;64102;48.628;9.002;2023-09-07T13:51:45;8.60;;;6.73;;
75520;SDS011;64102;48.628;9.002;2023-09-07T13:54:10;10.52;;;9.50;;
75520;SDS011;64102;48.628;9.002;2023-09-07T13:56:36;8.97;;;6.07;;
75520;SDS011;64102;48.628;9.002;2023-09-07T13:59:01;9.75;;;8.75;;
75520;SDS011;64102;48.628;9.002;2023-09-07T14:01:27;8.60;;;6.95;;
75520;SDS011;64102;48.628;9.002;2023-09-07T14:03:52;9.33;;;6.80;;
75520;SDS011;64102;48.628;9.002;2023-09-07T14:06:18;8.98;;;8.07;;
75520;SDS011;64102;48.628;9.002;2023-09-07T14:08:45;10.82;;;9.82;;
75520;SDS011;64102;48.628;9.002;2023-09-07T14:11:11;10.15;;;7.80;;
75520;SDS011;64102;48.628;9.002;2023-09-07T14:13:36;9.93;;;7.75;;
75520;SDS011;64102;48.628;9.002;2023-09-07T14:16:02;8.90;;;6.57;;
75520;SDS011;64102;48.628;9.002;2023-09-07T14:18:28;10.32;;;9.23;;
75520;SDS011;64102;48.628;9.002;2023-09-07T14:20:53;8.63;;;6.17;;
75520;SDS011;64102;48.628;9.002;2023-09-07T14:23:22;9.93;;;7.55;;
75520;SDS011;64102;48.628;9.002;2023-09-07T14:25:48;8.02;;;6.00;;
75520;SDS011;64102;48.628;9.002;2023-09-07T14:28:13;9.20;;;4.23;;
75520;SDS011;64102;48.628;9.002;2023-09-07T14:30:39;8.50;;;7.07;;
75520;SDS011;64102;48.628;9.002;2023-09-07T14:33:04;7.80;;;5.63;;
75520;SDS011;64102;48.628;9.002;2023-09-07T14:35:30;9.00;;;7.10;;
75520;SDS011;64102;48.628;9.002;2023-09-07T14:37:55;8.20;;;6.00;;
75520;SDS011;64102;48.628;9.002;2023-09-07T14:40:21;7.97;;;5.63;;
75520;SDS011;64102;48.628;9.002;2023-09-07T14:42:48;8.80;;;7.22;;
75520;SDS011;64102;48.628;9.002;2023-09-07T14:45:15;8.15;;;6.38;;